Time;durP1;ratioP1;P1;durP2;ratioP2;P2;SDS_P1;SDS_P2;PMS_P1;PMS_P2;Temp;Humidity;BMP_temperature;BMP_pressure;BME280_temperature;BME280_humidity;BME280_pressure;Samples;Min_cycle;Max_cycle;Signal;HPM_P1;HPM_P2
2021/12/13 00:00:12;;;;;;;7.38;3.05;;;;;;;9.67;100.00;101543.56;4983451;28;20057;-71
2021/12/13 00:03:05;;;;;;;6.70;2.75;;;;;;;9.73;100.00;101539.59;4994282;28;20058;-69
2021/12/13 00:05:44;;;;;;;7.85;2.83;;;;;;;9.69;100.00;101537.88;5001359;28;20375;-69
2021/12/13 00:08:18;;;;;;;8.20;3.03;;;;;;;9.54;100.00;101535.75;5004353;28;20034;-69
2021/12/13 00:10:52;;;;;;;7.45;2.80;;;;;;;9.61;100.00;101534.13;4996221;28;20573;-70
2021/12/13 00:13:23;;;;;;;8.23;2.97;;;;;;;9.59;100.00;101535.53;4993259;28;20448;-70
2021/12/13 00:15:58;;;;;;;8.90;2.92;;;;;;;9.55;100.00;101535.41;4998023;28;20061;-69
2021/12/13 00:18:39;;;;;;;10.82;3.25;;;;;;;9.61;100.00;101536.81;5003307;28;20084;-69
2021/12/13 00:21:16;;;;;;;7.47;2.90;;;;;;;9.54;100.00;101536.50;4995924;28;20442;-69
2021/12/13 00:23:48;;;;;;;6.63;2.78;;;;;;;9.53;100.00;101542.22;4999732;28;20046;-69
2021/12/13 00:28:51;;;;;;;9.02;2.83;;;;;;;9.58;100.00;101544.75;4984851;28;20042;-76
2021/12/13 00:31:25;;;;;;;11.90;3.38;;;;;;;9.69;100.00;101549.41;4969103;28;20376;-76
2021/12/13 00:34:21;;;;;;;13.05;3.47;;;;;;;9.67;100.00;101538.19;4965731;28;20113;-76
2021/12/13 00:36:49;;;;;;;10.93;3.92;;;;;;;9.65;100.00;101547.69;4962881;28;20109;-77
2021/12/13 00:39:39;;;;;;;9.02;3.70;;;;;;;9.64;100.00;101548.81;4957098;28;20122;-77
2021/12/13 00:42:07;;;;;;;9.73;3.53;;;;;;;9.62;100.00;101541.06;4961385;28;20120;-76
2021/12/13 00:44:46;;;;;;;9.23;3.20;;;;;;;9.65;100.00;101545.00;4986508;28;20514;-76
2021/12/13 00:47:17;;;;;;;13.80;3.13;;;;;;;9.77;100.00;101542.41;4969579;28;20033;-76
2021/12/13 00:49:47;;;;;;;9.82;3.28;;;;;;;9.77;100.00;101545.09;4959106;28;20086;-77
2021/12/13 00:52:17;;;;;;;10.32;3.25;;;;;;;9.74;100.00;101549.22;4969430;28;20161;-75
2021/12/13 00:54:44;;;;;;;9.20;3.40;;;;;;;9.64;100.00;101554.19;4964143;28;20035;-76
2021/12/13 00:57:40;;;;;;;7.25;2.88;;;;;;;9.66;100.00;101555.44;4965133;28;20403;-75
2021/12/13 01:00:11;;;;;;;7.93;3.15;;;;;;;9.63;100.00;101556.09;4968923;28;20101;-78
2021/12/13 01:02:39;;;;;;;7.43;3.05;;;;;;;9.67;100.00;101558.91;4960174;28;20035;-76
2021/12/13 01:05:09;;;;;;;10.25;3.03;;;;;;;9.67;100.00;101564.28;4969329;28;20105;-76
2021/12/13 01:08:32;;;;;;;6.95;2.65;;;;;;;9.63;100.00;101566.84;4965454;28;20058;-75
2021/12/13 01:11:33;;;;;;;7.18;2.97;;;;;;;9.63;100.00;101569.53;4908493;29;20123;-76
2021/12/13 01:14:38;;;;;;;8.90;2.83;;;;;;;9.72;100.00;101566.78;4900839;29;20060;-76
2021/12/13 01:17:46;;;;;;;8.77;2.45;;;;;;;9.73;100.00;101573.75;4966303;28;20124;-76
2021/12/13 01:20:24;;;;;;;11.27;2.65;;;;;;;9.68;100.00;101568.53;4966596;28;20496;-76
2021/12/13 01:23:02;;;;;;;5.85;1.95;;;;;;;9.67;100.00;101572.34;4967877;28;20039;-76
2021/12/13 01:25:43;;;;;;;8.25;2.45;;;;;;;9.73;100.00;101579.13;4961474;28;20031;-75
2021/12/13 01:28:31;;;;;;;5.50;2.33;;;;;;;9.80;100.00;101574.81;4964216;28;20501;-76
2021/12/13 01:31:01;;;;;;;7.78;2.03;;;;;;;9.75;100.00;101571.53;4970861;28;20070;-77
2021/12/13 01:33:30;;;;;;;11.00;2.63;;;;;;;9.80;100.00;101585.56;4974929;28;20114;-76
2021/12/13 01:36:00;;;;;;;7.38;2.85;;;;;;;9.80;100.00;101577.50;4969649;28;20122;-76
2021/12/13 01:38:36;;;;;;;6.95;2.58;;;;;;;9.84;100.00;101583.81;4984907;28;20058;-75
2021/12/13 01:41:11;;;;;;;4.55;1.73;;;;;;;9.83;100.00;101592.97;4972577;28;20039;-76
2021/12/13 01:43:40;;;;;;;10.15;2.90;;;;;;;9.88;100.00;101587.41;4972412;28;20031;-75
2021/12/13 01:46:07;;;;;;;7.28;2.22;;;;;;;9.85;100.00;101598.06;4968525;28;20034;-76
2021/12/13 01:48:38;;;;;;;5.03;2.10;;;;;;;9.82;100.00;101591.41;4968113;28;20538;-76
2021/12/13 01:51:11;;;;;;;6.32;2.45;;;;;;;9.80;100.00;101596.31;4968368;28;20534;-76
2021/12/13 01:53:46;;;;;;;6.43;2.30;;;;;;;9.86;100.00;101594.22;4973713;28;20034;-76
2021/12/13 02:00:07;;;;;;;8.82;2.58;;;;;;;9.80;100.00;101590.94;4966407;28;20031;-76
2021/12/13 02:02:09;;;;;;;7.22;2.42;;;;;;;9.82;100.00;101594.09;4957834;28;20089;-76
2021/12/13 02:04:35;;;;;;;8.57;2.78;;;;;;;9.88;100.00;101589.31;4969200;28;20122;-76
2021/12/13 02:07:03;;;;;;;7.72;3.30;;;;;;;9.84;100.00;101585.69;4989730;28;20498;-77
2021/12/13 02:09:39;;;;;;;7.30;2.42;;;;;;;9.97;100.00;101588.13;4971088;28;20041;-76
2021/12/13 02:12:19;;;;;;;8.70;2.67;;;;;;;9.89;100.00;101582.84;4974641;28;20031;-76
2021/12/13 02:16:55;;;;;;;5.05;2.40;;;;;;;9.88;100.00;101584.72;4973704;28;20070;-76
2021/12/13 02:17:35;;;;;;;5.97;2.45;;;;;;;9.93;100.00;101578.34;4963906;28;20039;-76
2021/12/13 02:20:10;;;;;;;7.60;2.75;;;;;;;9.92;100.00;101576.78;4966331;28;20094;-76
2021/12/13 02:22:36;;;;;;;8.93;2.03;;;;;;;9.96;100.00;101577.72;4973997;28;20033;-77
2021/12/13 02:25:08;;;;;;;6.88;2.47;;;;;;;10.01;100.00;101574.81;4973259;28;20384;-76
2021/12/13 02:27:37;;;;;;;9.40;2.97;;;;;;;10.02;100.00;101579.09;4968890;28;20051;-76
2021/12/13 02:30:13;;;;;;;9.52;2.72;;;;;;;10.00;100.00;101594.78;4967406;28;20099;-76
2021/12/13 02:32:41;;;;;;;5.05;1.77;;;;;;;10.02;100.00;101598.72;4970076;28;20073;-77
2021/12/13 02:35:08;;;;;;;4.75;2.53;;;;;;;10.04;100.00;101599.16;4973215;28;20039;-76
2021/12/13 02:37:35;;;;;;;5.55;2.28;;;;;;;10.00;100.00;101598.25;4970537;28;20261;-77
2021/12/13 02:40:03;;;;;;;5.25;2.58;;;;;;;9.88;100.00;101603.56;4972487;28;20038;-76
2021/12/13 02:42:30;;;;;;;8.30;2.85;;;;;;;9.98;100.00;101605.06;4967733;28;20122;-75
2021/12/13 02:45:04;;;;;;;3.97;2.05;;;;;;;10.03;100.00;101604.88;4973309;28;20034;-76
2021/12/13 02:47:39;;;;;;;5.00;2.22;;;;;;;10.09;100.00;101595.50;4967516;28;20045;-76
2021/12/13 02:50:27;;;;;;;5.05;2.10;;;;;;;10.00;100.00;101605.53;4972160;28;20050;-76
2021/12/13 02:52:53;;;;;;;3.75;1.35;;;;;;;9.91;100.00;101608.28;4970239;28;20042;-77
2021/12/13 02:55:23;;;;;;;5.43;1.92;;;;;;;9.98;100.00;101605.06;4971025;28;20039;-76
2021/12/13 02:57:52;;;;;;;3.83;1.85;;;;;;;9.95;100.00;101616.47;4966683;28;20055;-76
2021/12/13 03:00:41;;;;;;;3.72;1.67;;;;;;;10.02;100.00;101612.19;4971365;28;20034;-76
2021/12/13 03:03:13;;;;;;;2.90;1.50;;;;;;;9.98;100.00;101608.56;4979659;28;20066;-76
2021/12/13 03:05:42;;;;;;;5.40;1.92;;;;;;;10.03;100.00;101604.88;4973484;28;20031;-76
2021/12/13 03:08:19;;;;;;;5.22;1.70;;;;;;;9.98;100.00;101603.19;4974376;28;20360;-76
2021/12/13 03:10:49;;;;;;;3.67;1.27;;;;;;;9.99;100.00;101610.13;4969233;28;20050;-76
2021/12/13 03:13:17;;;;;;;5.15;1.83;;;;;;;10.02;100.00;101603.31;4973099;28;20089;-76
2021/12/13 03:15:49;;;;;;;3.08;1.50;;;;;;;10.00;100.00;101608.22;4966043;28;20030;-76
2021/12/13 03:18:24;;;;;;;2.53;1.30;;;;;;;10.00;100.00;101617.09;4971214;28;20376;-76
2021/12/13 03:20:49;;;;;;;2.58;1.40;;;;;;;10.02;100.00;101614.06;4966965;28;20054;-76
2021/12/13 03:23:25;;;;;;;4.72;1.23;;;;;;;10.14;100.00;101618.78;4972283;28;20018;-76
2021/12/13 03:26:23;;;;;;;3.80;1.38;;;;;;;10.11;100.00;101614.03;4969909;28;20645;-76
2021/12/13 03:29:11;;;;;;;4.15;1.83;;;;;;;10.08;100.00;101618.16;4967740;28;20050;-76
2021/12/13 03:31:45;;;;;;;2.75;0.93;;;;;;;10.12;100.00;101613.72;4974260;28;20050;-76
2021/12/13 03:34:15;;;;;;;3.28;1.45;;;;;;;10.22;100.00;101621.38;4973252;28;20034;-75
2021/12/13 03:36:56;;;;;;;3.35;1.58;;;;;;;10.20;100.00;101620.16;4978332;28;20403;-76
2021/12/13 03:39:32;;;;;;;2.90;1.40;;;;;;;10.22;100.00;101610.63;4983042;28;20039;-76
2021/12/13 03:42:00;;;;;;;2.50;1.35;;;;;;;10.22;100.00;101612.53;4971055;28;20039;-76
2021/12/13 03:44:34;;;;;;;2.20;1.30;;;;;;;10.31;100.00;101618.66;4965769;28;20042;-76
2021/12/13 03:47:08;;;;;;;4.05;1.23;;;;;;;10.30;100.00;101609.78;4963890;28;20031;-76
2021/12/13 03:49:41;;;;;;;3.28;1.33;;;;;;;10.27;100.00;101612.34;4972784;28;20129;-76
2021/12/13 03:52:13;;;;;;;4.10;1.73;;;;;;;10.35;100.00;101622.25;4974808;28;20026;-76
2021/12/13 03:54:41;;;;;;;3.88;1.77;;;;;;;10.28;100.00;101617.38;4970243;28;20038;-76
2021/12/13 03:57:08;;;;;;;4.00;1.40;;;;;;;10.24;100.00;101627.22;4966600;28;20717;-76
2021/12/13 03:59:38;;;;;;;4.50;1.88;;;;;;;10.28;100.00;101616.63;4969119;28;20031;-76
2021/12/13 04:02:08;;;;;;;3.20;1.23;;;;;;;10.29;100.00;101629.75;4962538;28;20126;-77
2021/12/13 04:04:40;;;;;;;3.20;1.23;;;;;;;10.37;100.00;101631.59;4966938;28;20547;-77
2021/12/13 04:07:15;;;;;;;3.25;1.65;;;;;;;10.24;100.00;101640.69;4963231;28;20062;-76
2021/12/13 04:09:43;;;;;;;4.43;1.65;;;;;;;10.22;100.00;101636.78;4965052;28;20039;-76
2021/12/13 04:12:11;;;;;;;4.53;1.73;;;;;;;10.30;100.00;101641.31;4969730;28;20475;-76
2021/12/13 04:14:44;;;;;;;4.82;1.98;;;;;;;10.27;100.00;101648.13;4969927;28;20644;-76
2021/12/13 04:17:21;;;;;;;5.53;1.80;;;;;;;10.33;100.00;101646.81;4970469;28;20069;-76
2021/12/13 04:19:53;;;;;;;3.53;1.60;;;;;;;10.39;100.00;101650.09;4969192;28;20061;-76
2021/12/13 04:22:21;;;;;;;4.20;2.03;;;;;;;10.46;100.00;101640.38;4969101;28;20463;-77
2021/12/13 04:24:58;;;;;;;3.08;1.50;;;;;;;10.44;100.00;101647.19;4971920;28;20047;-76
2021/12/13 04:27:29;;;;;;;5.07;1.50;;;;;;;10.40;100.00;101639.00;4967437;28;20546;-76
2021/12/13 04:29:59;;;;;;;3.10;1.40;;;;;;;10.33;100.00;101652.22;4969725;28;20089;-76
2021/12/13 04:32:31;;;;;;;4.80;1.70;;;;;;;10.40;100.00;101636.31;4965876;28;20035;-76
2021/12/13 04:34:59;;;;;;;4.68;1.95;;;;;;;10.41;100.00;101643.28;4972577;28;20030;-77
2021/12/13 04:37:28;;;;;;;1.80;1.10;;;;;;;10.49;100.00;101639.72;4974529;28;20039;-77
2021/12/13 04:40:03;;;;;;;3.35;1.42;;;;;;;10.40;100.00;101652.47;4965066;28;20601;-76
2021/12/13 04:42:29;;;;;;;3.30;1.25;;;;;;;10.43;100.00;101657.19;4966796;28;20035;-77
2021/12/13 04:45:05;;;;;;;3.70;1.67;;;;;;;10.42;100.00;101661.00;4970538;28;20042;-77
2021/12/13 04:47:48;;;;;;;4.15;1.60;;;;;;;10.45;100.00;101663.03;4969723;28;20074;-76
2021/12/13 04:50:29;;;;;;;3.22;1.40;;;;;;;10.41;100.00;101667.50;4986081;28;20500;-77
2021/12/13 04:52:56;;;;;;;4.00;1.90;;;;;;;10.36;100.00;101673.06;4968350;28;20173;-77
2021/12/13 04:55:43;;;;;;;4.60;1.75;;;;;;;10.37;100.00;101677.34;4971615;28;20038;-77
2021/12/13 04:58:12;;;;;;;4.88;1.52;;;;;;;10.39;100.00;101675.13;4969772;28;20039;-76
2021/12/13 05:00:41;;;;;;;5.10;2.05;;;;;;;10.41;100.00;101672.09;4971643;28;20043;-76
2021/12/13 05:03:09;;;;;;;4.32;1.40;;;;;;;10.52;100.00;101671.38;4966719;28;20121;-77
2021/12/13 05:05:35;;;;;;;3.75;1.38;;;;;;;10.54;100.00;101661.06;4968568;28;20518;-77
2021/12/13 05:08:02;;;;;;;5.72;2.25;;;;;;;10.63;100.00;101669.84;4970726;28;20178;-77
2021/12/13 05:10:30;;;;;;;5.28;1.33;;;;;;;10.55;100.00;101665.31;4972848;28;20034;-77
2021/12/13 05:13:28;;;;;;;4.18;1.63;;;;;;;10.49;100.00;101672.03;4966386;28;20154;-77
2021/12/13 05:16:00;;;;;;;4.90;1.70;;;;;;;10.59;100.00;101674.31;4966581;28;20039;-77
2021/12/13 05:18:31;;;;;;;4.25;1.52;;;;;;;10.58;100.00;101680.06;4968284;28;20435;-77
2021/12/13 05:21:08;;;;;;;5.07;1.60;;;;;;;10.58;100.00;101671.97;4972069;28;20030;-77
2021/12/13 05:23:46;;;;;;;3.78;1.65;;;;;;;10.63;100.00;101677.94;4971710;28;20035;-76
2021/12/13 05:26:26;;;;;;;3.67;1.27;;;;;;;10.57;100.00;101681.94;4971516;28;20134;-76
2021/12/13 05:28:52;;;;;;;4.18;1.73;;;;;;;10.56;100.00;101687.66;4963788;28;20443;-77
2021/12/13 05:31:24;;;;;;;5.68;2.40;;;;;;;10.54;100.00;101696.09;4969011;28;20110;-77
2021/12/13 05:33:52;;;;;;;4.53;1.58;;;;;;;10.60;100.00;101692.06;4960622;28;20444;-77
2021/12/13 05:36:30;;;;;;;4.10;1.73;;;;;;;10.61;100.00;101703.63;4964510;28;20041;-76
2021/12/13 05:39:15;;;;;;;2.72;1.27;;;;;;;10.57;100.00;101702.69;4961993;28;20031;-77
2021/12/13 05:41:56;;;;;;;5.80;2.15;;;;;;;10.58;100.00;101706.97;4967159;28;20097;-76
2021/12/13 05:44:28;;;;;;;6.60;1.75;;;;;;;10.64;100.00;101697.59;4963575;28;20387;-77
2021/12/13 05:46:56;;;;;;;5.50;1.45;;;;;;;10.66;100.00;101696.16;4966809;28;20027;-77
2021/12/13 05:49:30;;;;;;;6.10;1.40;;;;;;;10.60;100.00;101710.94;4966757;28;20031;-77
2021/12/13 05:52:09;;;;;;;4.05;1.63;;;;;;;10.71;100.00;101705.91;4963545;28;20373;-77
2021/12/13 05:54:42;;;;;;;2.92;1.05;;;;;;;10.71;100.00;101700.53;4964932;28;20089;-77
2021/12/13 05:57:28;;;;;;;4.25;1.40;;;;;;;10.72;100.00;101705.59;4968698;28;20062;-77
2021/12/13 06:00:11;;;;;;;3.75;1.52;;;;;;;10.76;100.00;101708.44;4967047;28;20039;-77
2021/12/13 06:03:02;;;;;;;5.53;1.70;;;;;;;10.80;100.00;101703.97;4968617;28;20109;-76
2021/12/13 06:05:37;;;;;;;4.22;1.70;;;;;;;10.75;100.00;101712.22;4966549;28;20069;-76
2021/12/13 06:08:10;;;;;;;2.58;1.30;;;;;;;10.68;100.00;101720.81;4980139;28;20040;-77
2021/12/13 06:10:47;;;;;;;4.05;1.38;;;;;;;10.67;100.00;101715.78;4964719;28;20057;-75
2021/12/13 06:13:23;;;;;;;4.15;1.23;;;;;;;10.69;100.00;101714.34;4962258;28;20030;-77
2021/12/13 06:15:48;;;;;;;4.43;1.25;;;;;;;10.69;100.00;101721.63;4968829;28;20046;-76
2021/12/13 06:18:29;;;;;;;2.88;1.40;;;;;;;10.68;100.00;101723.53;4964302;28;20090;-77
2021/12/13 06:21:07;;;;;;;2.22;1.10;;;;;;;10.71;100.00;101730.97;4970491;28;20045;-76
2021/12/13 06:23:36;;;;;;;3.47;1.33;;;;;;;10.67;100.00;101718.47;4972775;28;20038;-77
2021/12/13 06:26:10;;;;;;;3.05;1.40;;;;;;;10.71;100.00;101730.16;4973338;28;20034;-76
2021/12/13 06:28:43;;;;;;;4.68;1.63;;;;;;;10.78;100.00;101717.75;4967814;28;20071;-77
2021/12/13 06:31:17;;;;;;;3.90;1.38;;;;;;;10.75;100.00;101723.81;4970542;28;20042;-77
2021/12/13 06:33:50;;;;;;;5.80;1.75;;;;;;;10.84;100.00;101729.09;4979107;28;20045;-77
2021/12/13 06:36:47;;;;;;;5.93;1.55;;;;;;;10.88;100.00;101727.34;4964845;28;20050;-76
2021/12/13 06:39:19;;;;;;;8.50;1.83;;;;;;;10.86;100.00;101724.19;4962031;28;20053;-79
2021/12/13 06:41:48;;;;;;;5.00;1.73;;;;;;;10.85;100.00;101739.56;4968790;28;20173;-78
2021/12/13 06:44:26;;;;;;;8.95;2.30;;;;;;;10.85;100.00;101736.88;4968043;28;20038;-76
2021/12/13 06:47:01;;;;;;;6.88;2.00;;;;;;;10.82;100.00;101740.22;4970155;28;20396;-77
2021/12/13 06:49:38;;;;;;;3.08;1.65;;;;;;;10.79;100.00;101740.91;4968219;28;20035;-77
2021/12/13 06:52:08;;;;;;;5.15;2.35;;;;;;;10.67;100.00;101742.72;4969179;28;20190;-77
2021/12/13 06:54:46;;;;;;;4.25;1.85;;;;;;;10.67;100.00;101737.31;4966761;28;20042;-79
2021/12/13 06:57:18;;;;;;;3.95;1.75;;;;;;;10.68;100.00;101753.16;4969851;28;20035;-77
2021/12/13 06:59:46;;;;;;;3.67;1.73;;;;;;;10.74;100.00;101749.16;4970629;28;20058;-77
2021/12/13 07:02:22;;;;;;;4.63;1.88;;;;;;;10.80;100.00;101750.53;4972140;28;20079;-77
2021/12/13 07:04:56;;;;;;;3.75;1.65;;;;;;;10.78;100.00;101750.06;4966618;28;20053;-77
2021/12/13 07:07:28;;;;;;;4.65;2.08;;;;;;;10.73;100.00;101761.06;4970649;28;20380;-77
2021/12/13 07:10:01;;;;;;;5.28;1.98;;;;;;;10.69;100.00;101764.72;4968448;28;20030;-76
2021/12/13 07:12:31;;;;;;;5.50;1.95;;;;;;;10.72;100.00;101762.16;4969929;28;20069;-77
2021/12/13 07:14:57;;;;;;;9.68;2.20;;;;;;;10.77;100.00;101769.28;4968854;28;20031;-77
2021/12/13 07:17:28;;;;;;;5.47;1.92;;;;;;;10.76;100.00;101770.41;4968255;28;20117;-77
2021/12/13 07:19:54;;;;;;;5.47;2.42;;;;;;;10.62;100.00;101773.34;4971714;28;20066;-77
2021/12/13 07:22:23;;;;;;;6.55;1.75;;;;;;;10.80;100.00;101774.03;4971053;28;20113;-77
2021/12/13 07:24:53;;;;;;;4.30;1.75;;;;;;;10.75;100.00;101777.69;4988899;28;20034;-77
2021/12/13 07:27:29;;;;;;;3.47;1.55;;;;;;;10.75;100.00;101780.38;4970234;28;20050;-79
2021/12/13 07:30:06;;;;;;;4.80;1.98;;;;;;;10.77;100.00;101780.84;4970625;28;20396;-77
2021/12/13 07:32:42;;;;;;;6.43;2.10;;;;;;;10.75;100.00;101782.28;4982429;28;20034;-76
2021/12/13 07:35:12;;;;;;;5.35;2.15;;;;;;;10.79;100.00;101783.19;4971813;28;20392;-76
2021/12/13 07:38:16;;;;;;;4.10;1.60;;;;;;;10.96;100.00;101785.75;4970139;28;20042;-76
2021/12/13 07:40:54;;;;;;;4.82;2.28;;;;;;;10.95;100.00;101789.59;4925824;29;20044;-76
2021/12/13 07:43:37;;;;;;;4.90;2.05;;;;;;;10.93;100.00;101793.72;4965879;28;20066;-77
2021/12/13 07:46:32;;;;;;;5.18;1.70;;;;;;;10.89;100.00;101785.50;4986506;28;20133;-76
2021/12/13 07:49:08;;;;;;;4.97;2.13;;;;;;;10.82;100.00;101787.94;4966360;28;20039;-76
2021/12/13 07:51:50;;;;;;;5.82;2.92;;;;;;;10.84;100.00;101794.56;4969790;28;20051;-77
2021/12/13 07:54:18;;;;;;;6.25;2.13;;;;;;;10.94;100.00;101796.09;4967971;28;20062;-76
2021/12/13 07:56:52;;;;;;;5.07;2.33;;;;;;;10.96;100.00;101801.13;4966411;28;20039;-76
2021/12/13 07:59:38;;;;;;;3.90;1.70;;;;;;;10.99;100.00;101808.59;4980912;28;20470;-76
2021/12/13 08:02:17;;;;;;;5.22;1.95;;;;;;;10.93;100.00;101805.31;4986315;28;20487;-77
2021/12/13 08:04:57;;;;;;;5.30;1.85;;;;;;;10.88;100.00;101803.59;4963094;28;20046;-76
2021/12/13 08:07:25;;;;;;;4.80;1.83;;;;;;;10.98;100.00;101807.00;4968160;28;20031;-78
2021/12/13 08:09:58;;;;;;;5.20;1.77;;;;;;;10.99;100.00;101808.59;4971349;28;20094;-76
2021/12/13 08:12:28;;;;;;;8.07;1.90;;;;;;;11.03;100.00;101814.91;4965673;28;20043;-79
2021/12/13 08:15:07;;;;;;;3.45;1.75;;;;;;;11.02;100.00;101824.09;4979396;28;20035;-77
2021/12/13 08:17:44;;;;;;;5.80;2.03;;;;;;;11.02;100.00;101824.88;4962204;28;20089;-76
2021/12/13 08:20:18;;;;;;;4.07;1.58;;;;;;;11.07;100.00;101835.47;4965263;28;20387;-77
2021/12/13 08:22:49;;;;;;;6.15;2.38;;;;;;;10.94;100.00;101828.44;4966451;28;20042;-77
2021/12/13 08:25:26;;;;;;;5.53;1.98;;;;;;;11.03;100.00;101831.88;4984686;28;20039;-77
2021/12/13 08:28:05;;;;;;;4.57;2.05;;;;;;;10.99;100.00;101832.84;4970530;28;20133;-76
2021/12/13 08:30:44;;;;;;;7.00;2.22;;;;;;;11.11;100.00;101831.00;4966307;28;20046;-77
2021/12/13 08:33:12;;;;;;;4.20;1.70;;;;;;;11.23;100.00;101843.75;4962188;28;20122;-76
2021/12/13 08:35:55;;;;;;;5.47;1.75;;;;;;;11.26;100.00;101837.72;4965478;28;20031;-77
2021/12/13 08:38:41;;;;;;;4.72;2.20;;;;;;;11.24;100.00;101837.25;4968111;28;20035;-77
2021/12/13 08:41:17;;;;;;;5.90;1.83;;;;;;;11.19;100.00;101840.16;4983359;28;20031;-77
2021/12/13 08:43:51;;;;;;;5.32;2.10;;;;;;;11.34;100.00;101844.94;4964903;28;20495;-76
2021/12/13 08:46:31;;;;;;;5.85;2.35;;;;;;;11.31;100.00;101843.69;4966224;28;20027;-77
2021/12/13 08:49:10;;;;;;;3.10;1.77;;;;;;;11.34;100.00;101847.66;4965106;28;20046;-77
2021/12/13 08:51:36;;;;;;;5.55;2.15;;;;;;;11.31;100.00;101842.91;4984067;28;20045;-77
2021/12/13 08:54:09;;;;;;;4.53;2.13;;;;;;;11.31;100.00;101848.28;4963603;28;20031;-77
2021/12/13 08:56:42;;;;;;;3.75;1.70;;;;;;;11.28;100.00;101849.75;4963779;28;20486;-78
2021/12/13 08:59:23;;;;;;;5.20;1.73;;;;;;;11.33;100.00;101859.53;4965054;28;20035;-77
2021/12/13 09:01:54;;;;;;;3.80;1.70;;;;;;;11.50;100.00;101859.38;4968541;28;20035;-78
2021/12/13 09:04:31;;;;;;;;;;;;;;;11.36;100.00;101870.44;4964905;28;20483;-77
2021/12/13 09:07:00;;;;;;;5.85;1.90;;;;;;;11.29;100.00;101856.72;4965023;28;20367;-77
2021/12/13 09:09:26;;;;;;;5.25;1.98;;;;;;;11.31;100.00;101861.78;4959114;28;20035;-76
2021/12/13 09:11:59;;;;;;;4.85;2.20;;;;;;;11.34;100.00;101869.22;4966315;28;20392;-76
2021/12/13 09:14:31;;;;;;;4.88;2.30;;;;;;;11.41;100.00;101862.19;4958183;28;20063;-77
2021/12/13 09:17:07;;;;;;;4.30;1.90;;;;;;;11.47;100.00;101868.16;4963046;28;20042;-77
2021/12/13 09:19:48;;;;;;;9.43;2.20;;;;;;;11.52;100.00;101871.44;4963320;28;20031;-76
2021/12/13 09:22:31;;;;;;;5.07;2.03;;;;;;;11.52;100.00;101867.94;4963375;28;20039;-79
2021/12/13 09:25:19;;;;;;;7.68;2.22;;;;;;;11.45;100.00;101862.28;4958109;28;20138;-77
2021/12/13 09:27:51;;;;;;;3.97;1.38;;;;;;;11.40;100.00;101868.66;4961629;28;20047;-77
2021/12/13 09:30:23;;;;;;;4.30;1.63;;;;;;;11.39;100.00;101856.31;4960357;28;20038;-76
2021/12/13 09:33:11;;;;;;;4.47;1.58;;;;;;;11.41;100.00;101864.88;4970772;28;20083;-77
2021/12/13 09:35:41;;;;;;;4.97;2.05;;;;;;;11.45;100.00;101868.50;4942433;28;20463;-77
2021/12/13 09:38:21;;;;;;;4.53;1.80;;;;;;;11.53;100.00;101870.31;4962137;28;20102;-77
2021/12/13 09:41:01;;;;;;;3.80;1.70;;;;;;;11.56;100.00;101866.97;4961718;28;20031;-77
2021/12/13 09:43:42;;;;;;;2.53;1.38;;;;;;;11.48;100.00;101869.72;4956539;28;20030;-77
2021/12/13 09:46:09;;;;;;;5.45;2.13;;;;;;;11.56;100.00;101874.25;4965030;28;20089;-77
2021/12/13 09:48:45;;;;;;;5.65;2.00;;;;;;;11.59;100.00;101868.97;4964273;28;20064;-77
2021/12/13 09:51:17;;;;;;;3.78;1.75;;;;;;;11.63;100.00;101869.91;4961221;28;20090;-77
2021/12/13 09:53:47;;;;;;;6.47;2.28;;;;;;;11.49;100.00;101871.31;4964468;28;20071;-77
2021/12/13 09:56:15;;;;;;;4.20;1.75;;;;;;;11.54;100.00;101866.50;4970537;28;20081;-77
2021/12/13 09:58:46;;;;;;;6.13;1.83;;;;;;;11.65;100.00;101869.59;4966221;28;20041;-77
2021/12/13 10:01:33;;;;;;;6.53;1.98;;;;;;;11.69;100.00;101871.31;4962461;28;20035;-77
2021/12/13 10:04:03;;;;;;;3.55;1.98;;;;;;;11.62;100.00;101871.03;4971063;28;20066;-77
2021/12/13 10:06:46;;;;;;;7.72;2.35;;;;;;;11.71;100.00;101885.25;4960769;28;20082;-77
2021/12/13 10:09:26;;;;;;;4.00;1.77;;;;;;;11.73;100.00;101876.81;4960912;28;20031;-76
2021/12/13 10:12:07;;;;;;;5.65;2.30;;;;;;;11.72;100.00;101875.25;4963999;28;20042;-76
2021/12/13 10:14:39;;;;;;;5.30;2.03;;;;;;;11.77;100.00;101875.03;4960226;28;20031;-77
2021/12/13 10:17:06;;;;;;;6.43;2.22;;;;;;;11.81;100.00;101869.78;4968247;28;20035;-77
2021/12/13 10:19:39;;;;;;;9.60;2.08;;;;;;;11.71;100.00;101873.69;4964489;28;20090;-77
2021/12/13 10:22:06;;;;;;;6.15;2.53;;;;;;;11.78;100.00;101858.53;4960885;28;20031;-76
2021/12/13 10:25:00;;;;;;;3.97;1.60;;;;;;;11.83;100.00;101876.41;4962201;28;20484;-77
2021/12/13 10:27:26;;;;;;;5.43;2.10;;;;;;;11.70;100.00;101877.50;4964283;28;20134;-77
2021/12/13 10:29:58;;;;;;;5.15;2.65;;;;;;;11.88;100.00;101886.22;4966051;28;20465;-78
2021/12/13 10:32:29;;;;;;;4.75;2.03;;;;;;;11.87;100.00;101885.44;4968659;28;20034;-77
2021/12/13 10:34:57;;;;;;;;;;;;;;;11.90;100.00;101873.97;4967479;28;20505;-77
2021/12/13 10:37:32;;;;;;;4.47;1.75;;;;;;;12.00;100.00;101878.94;4973031;28;20290;-77
2021/12/13 10:40:26;;;;;;;5.55;1.88;;;;;;;11.93;100.00;101877.91;4961596;28;20035;-78
2021/12/13 10:42:57;;;;;;;4.47;1.67;;;;;;;11.78;100.00;101874.72;4962759;28;20549;-77
2021/12/13 10:45:26;;;;;;;3.92;1.95;;;;;;;11.80;100.00;101874.38;4967599;28;20065;-78
2021/12/13 10:47:54;;;;;;;3.45;1.55;;;;;;;11.81;100.00;101875.97;4965886;28;20031;-77
2021/12/13 10:50:29;;;;;;;6.13;2.00;;;;;;;11.86;100.00;101881.16;4965505;28;20026;-77
2021/12/13 10:52:54;;;;;;;4.18;1.92;;;;;;;11.92;100.00;101876.34;4964596;28;20135;-77
2021/12/13 10:55:31;;;;;;;5.20;2.42;;;;;;;11.71;100.00;101885.25;4966984;28;20106;-76
2021/12/13 10:58:02;;;;;;;5.65;2.03;;;;;;;11.76;100.00;101878.88;4965107;28;20030;-76
2021/12/13 11:00:36;;;;;;;6.45;2.33;;;;;;;11.80;100.00;101882.50;4960541;28;20083;-76
2021/12/13 11:03:08;;;;;;;3.97;1.77;;;;;;;11.81;100.00;101875.19;4968410;28;20589;-76
2021/12/13 11:05:35;;;;;;;4.90;2.25;;;;;;;11.80;100.00;101869.00;4967691;28;21292;-76
2021/12/13 11:08:01;;;;;;;4.07;1.67;;;;;;;11.90;100.00;101863.19;4968594;28;20504;-76
2021/12/13 11:10:41;;;;;;;6.75;2.75;;;;;;;11.95;100.00;101865.66;4964780;28;20467;-75
2021/12/13 11:13:07;;;;;;;3.85;1.77;;;;;;;11.99;100.00;101874.66;4961244;28;20492;-75
2021/12/13 11:15:38;;;;;;;4.97;2.13;;;;;;;12.08;100.00;101872.66;4961565;28;20042;-75
2021/12/13 11:18:11;;;;;;;4.25;2.00;;;;;;;12.07;100.00;101868.41;4964414;28;20468;-76
2021/12/13 11:20:42;;;;;;;4.10;2.00;;;;;;;12.05;100.00;101867.94;4956579;28;20047;-75
2021/12/13 11:23:11;;;;;;;3.45;1.95;;;;;;;12.11;100.00;101863.91;4959386;28;20051;-75
2021/12/13 11:25:43;;;;;;;3.38;1.70;;;;;;;12.15;100.00;101862.13;4958750;28;20047;-75
2021/12/13 11:28:11;;;;;;;5.07;1.73;;;;;;;12.19;100.00;101859.53;4960335;28;20027;-75
2021/12/13 11:30:38;;;;;;;4.10;1.75;;;;;;;12.24;100.00;101862.00;4961902;28;20039;-75
2021/12/13 11:33:10;;;;;;;2.30;1.45;;;;;;;12.23;100.00;101855.78;4961156;28;20042;-75
2021/12/13 11:36:12;;;;;;;2.13;1.48;;;;;;;12.09;100.00;101855.34;4963444;28;20492;-75
2021/12/13 11:39:12;;;;;;;4.55;1.70;;;;;;;11.92;100.00;101858.25;4971507;28;20039;-75
2021/12/13 11:42:15;;;;;;;3.92;2.10;;;;;;;12.22;100.00;101851.53;4981205;28;20031;-75
2021/12/13 11:45:08;;;;;;;1.65;0.77;;;;;;;12.35;100.00;101858.53;4955301;28;20043;-75
2021/12/13 11:47:50;;;;;;;2.08;1.85;;;;;;;12.38;100.00;101855.16;4959128;28;20066;-75
2021/12/13 11:50:48;;;;;;;1.98;1.13;;;;;;;12.33;100.00;101858.06;4961725;28;20038;-75
2021/12/13 11:53:48;;;;;;;2.08;1.20;;;;;;;12.25;100.00;101844.69;4955065;28;20042;-75
2021/12/13 11:56:40;;;;;;;4.03;1.63;;;;;;;12.18;100.00;101844.44;4960314;28;20035;-75
2021/12/13 11:59:32;;;;;;;3.00;1.17;;;;;;;12.24;100.00;101841.19;4956874;28;20034;-75
2021/12/13 12:02:33;;;;;;;4.80;1.33;;;;;;;12.14;100.00;101849.72;4961673;28;20043;-75